Time;durP1;ratioP1;P1;durP2;ratioP2;P2;SDS_P1;SDS_P2;PMS_P1;PMS_P2;Temp;Humidity;BMP_temperature;BMP_pressure;BME280_temperature;BME280_humidity;BME280_pressure;Samples;Min_cycle;Max_cycle;Signal;HPM_P1;HPM_P2
2021/03/15 00:01:06;;;;;;;3.80;3.50;;;;;;;4.56;92.66;96140.44;5062258;28;20432;-60
2021/03/15 00:03:31;;;;;;;4.03;3.67;;;;;;;4.45;93.72;96141.81;5073451;28;20623;-60
2021/03/15 00:05:58;;;;;;;4.77;3.67;;;;;;;4.59;93.18;96140.88;5077846;28;20408;-64
2021/03/15 00:08:24;;;;;;;4.40;4.00;;;;;;;4.66;92.20;96136.50;5079784;28;20190;-61
2021/03/15 00:10:49;;;;;;;4.67;3.57;;;;;;;4.56;92.26;96130.84;5067830;28;20422;-64
2021/03/15 00:13:15;;;;;;;3.97;3.33;;;;;;;4.44;93.15;96135.00;5060007;28;20404;-61
2021/03/15 00:15:42;;;;;;;4.47;3.43;;;;;;;4.43;93.58;96138.59;5059942;28;20235;-64
2021/03/15 00:18:07;;;;;;;4.80;3.80;;;;;;;4.54;92.80;96139.84;5059235;28;20206;-61
2021/03/15 00:20:33;;;;;;;7.77;3.50;;;;;;;4.67;91.53;96127.72;5059938;28;20902;-64
2021/03/15 00:22:58;;;;;;;5.30;4.03;;;;;;;4.76;91.42;96121.34;5059906;28;20201;-61
2021/03/15 00:25:24;;;;;;;5.07;3.73;;;;;;;4.62;92.41;96121.47;5059600;28;20174;-64
2021/03/15 00:27:49;;;;;;;4.23;3.87;;;;;;;4.57;91.86;96116.03;5059299;28;20186;-61
2021/03/15 00:30:17;;;;;;;4.13;3.83;;;;;;;4.49;92.35;96121.41;5059618;28;20180;-64
2021/03/15 00:32:44;;;;;;;3.80;3.43;;;;;;;4.46;93.27;96133.00;5059810;28;20205;-64
2021/03/15 00:35:12;;;;;;;4.10;3.70;;;;;;;4.37;93.09;96125.53;5059050;28;20932;-61
2021/03/15 00:37:38;;;;;;;4.23;3.93;;;;;;;4.61;92.96;96128.47;5059029;28;20791;-64
2021/03/15 00:40:06;;;;;;;3.37;3.13;;;;;;;4.35;92.80;96124.97;5058989;28;20420;-64
2021/03/15 00:42:32;;;;;;;5.07;4.50;;;;;;;4.44;93.66;96123.81;5059382;28;20499;-64
2021/03/15 00:44:58;;;;;;;5.40;4.23;;;;;;;4.32;93.09;96118.34;5059308;28;20403;-60
2021/03/15 00:47:23;;;;;;;4.00;3.70;;;;;;;4.62;91.63;96122.25;5058747;28;20413;-64
2021/03/15 00:49:48;;;;;;;5.30;4.83;;;;;;;4.82;91.08;96119.75;5063094;28;20177;-60
2021/03/15 00:52:14;;;;;;;5.60;4.70;;;;;;;4.85;90.92;96119.34;5077877;28;20563;-61
2021/03/15 00:54:39;;;;;;;6.10;4.63;;;;;;;4.84;90.05;96113.34;5061083;28;20333;-64
2021/03/15 00:57:05;;;;;;;5.37;4.80;;;;;;;4.86;89.94;96116.53;5058859;28;20191;-61
2021/03/15 00:59:30;;;;;;;4.47;3.73;;;;;;;4.49;91.75;96117.03;5059287;28;20285;-64
2021/03/15 01:01:55;;;;;;;5.03;4.63;;;;;;;4.58;91.49;96110.66;5076880;28;20185;-64
2021/03/15 01:04:21;;;;;;;4.53;4.13;;;;;;;4.62;91.78;96113.69;5077604;28;20185;-61
2021/03/15 01:06:46;;;;;;;5.17;4.30;;;;;;;4.75;90.32;96108.50;5079075;28;20170;-60
2021/03/15 01:09:12;;;;;;;5.03;4.13;;;;;;;4.83;90.02;96109.13;5079676;28;20189;-64
2021/03/15 01:11:39;;;;;;;4.60;4.10;;;;;;;4.74;90.39;96109.50;5079873;28;20200;-64
2021/03/15 01:14:04;;;;;;;3.90;3.60;;;;;;;4.75;90.63;96106.69;5063732;28;20191;-64
2021/03/15 01:16:30;;;;;;;4.60;3.80;;;;;;;4.72;90.06;96104.50;5057757;28;20419;-64
2021/03/15 01:18:55;;;;;;;4.63;3.70;;;;;;;4.74;89.99;96105.09;5069888;28;20201;-61
2021/03/15 01:21:21;;;;;;;3.60;3.30;;;;;;;4.60;90.53;96113.84;5076481;28;20257;-64
2021/03/15 01:23:46;;;;;;;4.37;3.97;;;;;;;4.58;91.16;96112.44;5074854;28;20198;-60
2021/03/15 01:26:12;;;;;;;4.57;3.80;;;;;;;4.55;91.72;96102.44;5075723;28;20178;-61
2021/03/15 01:28:37;;;;;;;4.30;3.90;;;;;;;4.57;90.58;96109.03;5075493;28;20201;-64
2021/03/15 01:31:03;;;;;;;4.80;3.93;;;;;;;4.56;90.88;96093.63;5074343;28;20264;-64
2021/03/15 01:33:28;;;;;;;5.77;3.80;;;;;;;4.46;91.62;96099.19;5062625;28;20193;-61
2021/03/15 01:35:54;;;;;;;5.10;4.37;;;;;;;4.70;90.31;96092.66;5055534;28;20175;-62
2021/03/15 01:38:20;;;;;;;4.93;3.90;;;;;;;4.65;89.80;96082.06;5055273;28;20274;-64
2021/03/15 01:40:45;;;;;;;8.97;3.87;;;;;;;4.43;91.77;96085.78;5055777;28;20175;-64
2021/03/15 01:43:11;;;;;;;4.23;3.93;;;;;;;4.46;91.63;96085.38;5055714;28;20914;-65
2021/03/15 01:45:37;;;;;;;6.53;4.00;;;;;;;4.17;93.84;96076.88;5058733;28;20182;-61
2021/03/15 01:48:05;;;;;;;5.53;4.30;;;;;;;4.19;93.58;96069.69;5075297;28;20553;-65
2021/03/15 01:50:31;;;;;;;4.13;3.80;;;;;;;3.94;93.75;96071.16;5075529;28;20171;-64
2021/03/15 01:52:57;;;;;;;4.40;3.80;;;;;;;3.81;95.56;96067.66;5064282;28;20757;-61
2021/03/15 01:55:24;;;;;;;4.73;4.30;;;;;;;3.94;94.59;96065.97;5055566;28;20517;-62
2021/03/15 01:57:49;;;;;;;5.17;3.87;;;;;;;3.97;95.12;96067.34;5054699;28;20205;-64
2021/03/15 02:00:18;;;;;;;5.20;4.70;;;;;;;3.62;97.00;96060.56;5055095;28;20988;-61
2021/03/15 02:02:49;;;;;;;5.00;3.80;;;;;;;3.87;96.69;96059.13;5056804;28;20512;-64
2021/03/15 02:05:15;;;;;;;5.60;4.50;;;;;;;4.10;95.40;96057.03;5055713;28;20403;-61
2021/03/15 02:07:40;;;;;;;8.57;4.30;;;;;;;3.84;96.04;96049.13;5054850;28;20488;-61
2021/03/15 02:10:07;;;;;;;3.97;3.60;;;;;;;3.80;97.12;96046.09;5055239;28;20182;-60
2021/03/15 02:12:51;;;;;;;5.13;4.47;;;;;;;3.76;97.54;96033.66;5055377;28;20182;-60
2021/03/15 02:15:31;;;;;;;5.77;4.03;;;;;;;3.84;97.97;96026.50;5071490;28;20465;-64
2021/03/15 02:18:06;;;;;;;4.30;3.70;;;;;;;3.72;98.76;96022.88;5057912;28;20469;-60
2021/03/15 02:20:56;;;;;;;5.07;4.03;;;;;;;3.92;97.11;96026.38;5054906;28;20769;-64
2021/03/15 02:23:26;;;;;;;5.23;4.47;;;;;;;4.16;96.71;96018.09;5055087;28;20936;-64
2021/03/15 02:26:03;;;;;;;5.50;4.17;;;;;;;4.06;96.86;96015.03;5054663;28;20409;-63
2021/03/15 02:29:03;;;;;;;5.60;3.97;;;;;;;3.95;96.10;96015.56;5056256;28;20855;-64
2021/03/15 02:31:47;;;;;;;5.83;4.40;;;;;;;4.02;96.74;96005.22;5063888;28;20431;-64
2021/03/15 02:34:40;;;;;;;6.03;3.97;;;;;;;4.09;96.28;96006.84;5054711;28;20434;-64
2021/03/15 02:37:09;;;;;;;6.57;4.40;;;;;;;4.27;95.76;96005.50;5054493;28;20459;-64
2021/03/15 02:39:44;;;;;;;5.83;4.00;;;;;;;4.10;95.45;96000.66;5054774;28;20416;-65
2021/03/15 02:42:14;;;;;;;4.83;4.30;;;;;;;4.26;95.58;95993.53;5062345;28;20445;-64
2021/03/15 02:44:43;;;;;;;4.50;3.60;;;;;;;4.42;95.37;95986.13;5075163;28;20403;-64
2021/03/15 02:47:12;;;;;;;5.50;3.80;;;;;;;4.31;94.47;95991.13;5056357;28;20420;-61
2021/03/15 02:49:41;;;;;;;6.87;3.90;;;;;;;4.49;94.46;95979.19;5054674;28;20410;-64
2021/03/15 02:52:08;;;;;;;7.40;3.10;;;;;;;4.20;94.89;95969.09;5054143;28;20900;-61
2021/03/15 02:54:35;;;;;;;7.77;3.50;;;;;;;4.07;95.61;95969.06;5053306;28;20770;-64
2021/03/15 02:57:01;;;;;;;5.87;3.73;;;;;;;4.38;94.13;95963.34;5054555;28;20559;-64
2021/03/15 02:59:31;;;;;;;6.57;3.70;;;;;;;4.26;94.33;95975.31;5054327;28;20463;-64
2021/03/15 03:01:59;;;;;;;4.10;3.50;;;;;;;4.39;93.39;95975.34;5054400;28;20414;-64
2021/03/15 03:04:27;;;;;;;10.07;4.27;;;;;;;4.29;94.71;95972.31;5052961;28;20430;-64
2021/03/15 03:06:55;;;;;;;9.30;4.00;;;;;;;4.24;94.83;95966.91;5053603;28;20429;-60
2021/03/15 03:09:21;;;;;;;3.83;3.53;;;;;;;4.41;94.51;95968.13;5053998;28;20455;-61
2021/03/15 03:11:49;;;;;;;5.33;3.43;;;;;;;4.39;94.68;95957.13;5053701;28;20421;-61
2021/03/15 03:14:15;;;;;;;3.73;3.40;;;;;;;4.38;94.88;95955.53;5053995;28;20917;-61
2021/03/15 03:16:41;;;;;;;5.87;3.70;;;;;;;4.06;95.19;95951.84;5053462;28;20492;-60
2021/03/15 03:19:10;;;;;;;4.10;3.70;;;;;;;4.22;95.56;95951.53;5054031;28;20198;-60
2021/03/15 03:21:38;;;;;;;5.03;3.67;;;;;;;4.04;95.65;95946.84;5053699;28;20476;-64
2021/03/15 03:24:05;;;;;;;5.23;3.50;;;;;;;4.23;94.95;95947.91;5054891;28;20507;-64
2021/03/15 03:26:31;;;;;;;9.40;3.80;;;;;;;4.00;95.86;95942.25;5053940;28;20808;-61
2021/03/15 03:28:59;;;;;;;4.10;3.70;;;;;;;4.04;96.77;95940.88;5053887;28;20423;-64
2021/03/15 03:31:30;;;;;;;4.10;3.70;;;;;;;3.90;96.69;95932.22;5055533;28;20517;-64
2021/03/15 03:33:55;;;;;;;5.60;3.57;;;;;;;4.06;96.78;95931.06;5073668;28;20921;-64
2021/03/15 03:36:21;;;;;;;4.43;3.50;;;;;;;4.28;94.62;95923.91;5073156;28;20501;-64
2021/03/15 03:38:47;;;;;;;6.87;3.40;;;;;;;4.24;94.65;95925.31;5072872;28;20215;-64
2021/03/15 03:41:12;;;;;;;3.07;2.77;;;;;;;4.06;96.59;95918.06;5072878;28;20199;-61
2021/03/15 03:43:38;;;;;;;3.10;2.80;;;;;;;4.20;95.74;95914.53;5073578;28;20499;-61
2021/03/15 03:46:05;;;;;;;3.50;3.20;;;;;;;4.19;95.42;95916.31;5067561;28;20221;-61
2021/03/15 03:48:31;;;;;;;3.63;3.30;;;;;;;4.08;96.53;95916.06;5062936;28;20197;-61
2021/03/15 03:50:58;;;;;;;2.90;2.70;;;;;;;4.11;95.76;95920.91;5071621;28;20422;-61
2021/03/15 03:53:32;;;;;;;2.87;2.67;;;;;;;3.96;97.01;95918.47;5073585;28;20412;-61
2021/03/15 03:56:01;;;;;;;5.27;2.53;;;;;;;3.92;97.02;95921.63;5073257;28;20885;-62
2021/03/15 03:58:31;;;;;;;4.07;3.10;;;;;;;4.09;96.81;95925.47;5073304;28;20462;-64
2021/03/15 04:00:57;;;;;;;5.10;3.13;;;;;;;3.88;97.73;95931.59;5062285;28;20429;-64
2021/03/15 04:03:25;;;;;;;4.47;2.40;;;;;;;4.00;97.15;95926.66;5053454;28;20409;-61
2021/03/15 04:05:53;;;;;;;5.53;2.70;;;;;;;4.10;96.79;95920.09;5052979;28;20430;-61
2021/03/15 04:08:50;;;;;;;4.80;3.07;;;;;;;4.08;96.63;95923.88;5053116;28;20436;-64
2021/03/15 04:11:19;;;;;;;2.80;2.53;;;;;;;3.97;97.69;95919.22;5068717;28;20418;-60
2021/03/15 04:13:49;;;;;;;5.37;2.60;;;;;;;3.89;98.55;95909.03;5053292;28;20419;-64
2021/03/15 04:16:15;;;;;;;3.57;2.63;;;;;;;3.78;98.41;95905.22;5053181;28;20404;-60
2021/03/15 04:18:47;;;;;;;4.47;3.20;;;;;;;3.93;98.24;95905.84;5054063;28;20986;-59
2021/03/15 04:21:17;;;;;;;4.77;3.13;;;;;;;3.88;98.10;95912.63;5053035;28;20456;-61
2021/03/15 04:23:44;;;;;;;2.60;2.40;;;;;;;3.90;98.53;95908.03;5053449;28;20481;-60
2021/03/15 04:26:10;;;;;;;5.67;3.13;;;;;;;4.03;97.90;95911.47;5052797;28;20441;-64
2021/03/15 04:28:37;;;;;;;3.50;3.20;;;;;;;4.21;96.99;95903.09;5053015;28;20455;-63
2021/03/15 04:31:07;;;;;;;8.27;3.60;;;;;;;4.11;97.33;95895.69;5053006;28;20484;-64
2021/03/15 04:33:35;;;;;;;3.43;3.00;;;;;;;3.86;98.86;95897.22;5055560;28;20475;-61
2021/03/15 04:36:01;;;;;;;3.83;3.00;;;;;;;3.89;99.12;95896.84;5061908;28;20446;-61
2021/03/15 04:38:26;;;;;;;3.80;3.53;;;;;;;3.76;100.00;95880.41;5052806;28;20820;-64
2021/03/15 04:40:52;;;;;;;5.40;3.70;;;;;;;3.78;100.00;95874.03;5053151;28;20231;-62
2021/03/15 04:43:19;;;;;;;5.13;3.33;;;;;;;3.76;100.00;95867.41;5052889;28;20256;-64
2021/03/15 04:45:45;;;;;;;5.43;2.87;;;;;;;3.74;100.00;95859.81;5052897;28;20420;-64
2021/03/15 04:48:21;;;;;;;3.37;2.90;;;;;;;3.86;100.00;95863.44;5053536;28;20443;-61
2021/03/15 04:50:52;;;;;;;5.90;3.67;;;;;;;4.09;99.41;95866.47;5052811;28;20575;-61
2021/03/15 04:53:19;;;;;;;3.40;3.20;;;;;;;4.07;99.33;95860.72;5056726;28;20911;-60
2021/03/15 04:55:45;;;;;;;5.60;3.53;;;;;;;4.12;99.19;95860.91;5056736;28;20411;-64
2021/03/15 04:58:12;;;;;;;4.90;3.23;;;;;;;4.21;98.15;95861.50;5056088;28;20850;-61
2021/03/15 05:00:42;;;;;;;6.10;3.57;;;;;;;4.08;98.69;95857.09;5067921;28;20186;-60
2021/03/15 05:03:09;;;;;;;2.87;2.67;;;;;;;3.98;99.36;95861.91;5076670;28;20446;-64
2021/03/15 05:05:37;;;;;;;7.90;3.67;;;;;;;3.87;100.00;95861.66;5068267;28;20450;-64
2021/03/15 05:08:05;;;;;;;2.70;2.50;;;;;;;4.06;99.27;95855.69;5055862;28;20457;-64
2021/03/15 05:10:33;;;;;;;4.67;3.50;;;;;;;4.25;98.74;95847.13;5056822;28;20761;-64
2021/03/15 05:12:59;;;;;;;3.43;2.47;;;;;;;4.00;99.19;95846.09;5057257;28;20428;-64
2021/03/15 05:15:25;;;;;;;3.33;2.73;;;;;;;4.11;99.56;95841.09;5056576;28;20466;-60
2021/03/15 05:17:51;;;;;;;3.47;3.17;;;;;;;4.33;98.69;95835.75;5055799;28;20489;-60
2021/03/15 05:20:17;;;;;;;5.03;3.23;;;;;;;4.17;98.42;95832.53;5056052;28;20523;-64
2021/03/15 05:22:44;;;;;;;3.67;2.70;;;;;;;4.05;99.67;95831.53;5056229;28;20169;-64
2021/03/15 05:25:11;;;;;;;3.60;3.20;;;;;;;3.90;100.00;95824.88;5055749;28;20475;-60
2021/03/15 05:27:38;;;;;;;3.00;2.60;;;;;;;3.98;100.00;95822.91;5058585;28;20447;-61
2021/03/15 05:30:07;;;;;;;3.07;2.80;;;;;;;3.77;100.00;95809.25;5076088;28;20507;-60
2021/03/15 05:32:36;;;;;;;2.80;2.50;;;;;;;3.83;100.00;95814.50;5076081;28;20411;-60
2021/03/15 05:35:03;;;;;;;5.17;3.20;;;;;;;3.82;100.00;95820.66;5075563;28;20461;-60
2021/03/15 05:37:29;;;;;;;4.70;3.27;;;;;;;3.95;100.00;95814.72;5074052;28;20895;-64
2021/03/15 05:39:55;;;;;;;4.53;3.10;;;;;;;3.72;100.00;95809.88;5069227;28;20466;-64
2021/03/15 05:42:56;;;;;;;2.83;2.63;;;;;;;3.82;100.00;95812.88;5056751;28;20523;-64
2021/03/15 05:45:26;;;;;;;4.27;2.60;;;;;;;3.84;100.00;95804.91;5055530;28;20210;-60
2021/03/15 05:48:41;;;;;;;2.00;1.90;;;;;;;3.97;100.00;95799.69;5054876;28;20487;-61
2021/03/15 05:51:31;;;;;;;3.67;2.70;;;;;;;3.96;100.00;95790.31;5055595;28;20772;-60
2021/03/15 05:54:24;;;;;;;3.37;3.13;;;;;;;3.97;100.00;95794.50;5055701;28;20408;-64
2021/03/15 05:57:24;;;;;;;3.40;2.77;;;;;;;3.71;100.00;95789.28;5055326;28;20422;-60
2021/03/15 05:59:52;;;;;;;3.00;2.80;;;;;;;3.91;100.00;95780.50;5055289;28;20416;-64
2021/03/15 06:02:32;;;;;;;2.83;2.40;;;;;;;3.98;100.00;95777.94;5054899;28;20459;-60
2021/03/15 06:05:28;;;;;;;4.30;2.80;;;;;;;3.84;100.00;95774.50;5055315;28;20423;-61
2021/03/15 06:08:10;;;;;;;3.03;2.83;;;;;;;3.79;100.00;95769.13;5054866;28;20521;-64
2021/03/15 06:10:36;;;;;;;3.77;2.80;;;;;;;3.85;100.00;95776.13;5070841;28;20945;-64
2021/03/15 06:13:02;;;;;;;4.10;2.83;;;;;;;3.59;100.00;95772.66;5075156;28;20424;-65
2021/03/15 06:15:45;;;;;;;3.27;3.03;;;;;;;3.86;100.00;95751.72;5060071;28;20179;-64
2021/03/15 06:18:14;;;;;;;3.50;2.77;;;;;;;3.72;100.00;95767.50;5054563;28;20495;-61
2021/03/15 06:20:48;;;;;;;3.80;3.40;;;;;;;3.64;100.00;95763.28;5053884;28;20412;-61
2021/03/15 06:23:15;;;;;;;4.27;2.90;;;;;;;3.60;100.00;95764.72;5054938;28;20416;-64
2021/03/15 06:25:42;;;;;;;3.53;3.23;;;;;;;3.55;100.00;95759.28;5034985;28;20417;-61
2021/03/15 06:28:08;;;;;;;3.67;3.33;;;;;;;3.74;100.00;95750.72;5034561;28;20448;-65
2021/03/15 06:30:35;;;;;;;3.40;3.10;;;;;;;3.58;100.00;95747.72;5053181;28;20818;-61
2021/03/15 06:33:01;;;;;;;4.13;3.37;;;;;;;3.43;100.00;95741.88;5074553;28;20405;-65
2021/03/15 06:35:29;;;;;;;2.70;2.50;;;;;;;3.27;100.00;95734.47;5074907;28;20856;-63
2021/03/15 06:37:56;;;;;;;3.50;2.90;;;;;;;3.45;100.00;95730.31;5072247;28;20458;-64
2021/03/15 06:40:22;;;;;;;4.00;2.97;;;;;;;3.28;100.00;95729.06;5074647;28;20457;-61
2021/03/15 06:42:53;;;;;;;6.20;3.27;;;;;;;3.30;100.00;95734.88;5074745;28;20889;-61
2021/03/15 06:45:19;;;;;;;2.70;2.50;;;;;;;3.30;100.00;95736.69;5056479;28;20901;-61
2021/03/15 06:47:46;;;;;;;4.17;3.00;;;;;;;3.27;100.00;95729.25;5053971;28;20783;-65
2021/03/15 06:50:13;;;;;;;2.53;2.33;;;;;;;3.39;100.00;95728.50;5054114;28;20505;-64
2021/03/15 06:53:00;;;;;;;3.07;2.87;;;;;;;3.30;100.00;95719.28;5065716;28;20418;-62
2021/03/15 06:55:36;;;;;;;5.97;2.67;;;;;;;3.51;100.00;95719.16;5074524;28;20398;-65
2021/03/15 06:58:25;;;;;;;2.70;2.60;;;;;;;3.60;100.00;95714.56;5069948;28;20540;-61
2021/03/15 07:01:14;;;;;;;2.90;2.43;;;;;;;3.71;100.00;95714.78;5054867;28;20942;-65
2021/03/15 07:03:41;;;;;;;2.83;2.63;;;;;;;3.83;100.00;95720.97;5048656;28;20451;-61
2021/03/15 07:06:08;;;;;;;3.23;2.23;;;;;;;3.58;100.00;95713.94;5056528;28;20434;-61
2021/03/15 07:08:34;;;;;;;2.77;2.57;;;;;;;3.61;100.00;95724.75;5063794;28;20438;-68
2021/03/15 07:11:00;;;;;;;2.90;2.47;;;;;;;3.50;100.00;95725.31;5057859;28;20561;-64
2021/03/15 07:13:32;;;;;;;2.30;2.10;;;;;;;3.56;100.00;95721.13;5070134;28;20515;-63
2021/03/15 07:15:58;;;;;;;2.63;2.43;;;;;;;3.63;100.00;95719.34;5065648;28;20172;-62
2021/03/15 07:18:31;;;;;;;2.70;2.47;;;;;;;3.82;100.00;95715.97;5073641;28;20506;-61
2021/03/15 07:21:00;;;;;;;2.20;2.10;;;;;;;3.87;100.00;95721.38;5071666;28;20206;-60
2021/03/15 07:23:49;;;;;;;2.47;2.27;;;;;;;3.69;100.00;95734.16;5055138;28;20449;-62
2021/03/15 07:26:23;;;;;;;3.00;2.30;;;;;;;3.74;100.00;95734.34;5057186;28;20422;-61
2021/03/15 07:28:50;;;;;;;2.50;2.30;;;;;;;3.91;100.00;95738.94;5049673;28;20947;-61
2021/03/15 07:31:27;;;;;;;2.20;1.67;;;;;;;3.87;100.00;95742.97;5064178;28;20465;-61
2021/03/15 07:33:55;;;;;;;1.70;1.60;;;;;;;3.74;100.00;95736.94;5071514;28;20859;-61
2021/03/15 07:36:31;;;;;;;2.20;1.47;;;;;;;3.59;100.00;95746.69;5056805;28;20424;-63
2021/03/15 07:38:58;;;;;;;1.90;1.80;;;;;;;3.55;100.00;95741.09;5060503;28;20457;-63
2021/03/15 07:41:25;;;;;;;1.27;1.10;;;;;;;3.55;100.00;95737.72;5054546;28;20419;-63
2021/03/15 07:43:51;;;;;;;1.30;1.27;;;;;;;3.41;100.00;95736.88;5053381;28;20808;-63
2021/03/15 07:46:18;;;;;;;1.43;1.33;;;;;;;3.49;100.00;95728.94;5052653;28;20931;-61
2021/03/15 07:48:43;;;;;;;1.30;1.30;;;;;;;3.52;100.00;95723.34;5055787;28;20433;-63
2021/03/15 07:51:10;;;;;;;0.97;0.97;;;;;;;3.53;100.00;95734.53;5062863;28;20420;-61
2021/03/15 07:53:36;;;;;;;1.17;1.07;;;;;;;3.19;100.00;95735.44;5053571;28;20170;-60
2021/03/15 07:56:02;;;;;;;1.30;1.30;;;;;;;3.27;100.00;95739.66;5054042;28;20415;-61
2021/03/15 07:58:33;;;;;;;4.23;1.27;;;;;;;3.60;100.00;95732.75;5055497;28;20470;-61
2021/03/15 08:01:00;;;;;;;2.83;1.80;;;;;;;3.51;100.00;95734.72;5072745;28;20516;-62
2021/03/15 08:03:26;;;;;;;1.30;1.20;;;;;;;3.32;100.00;95732.06;5062708;28;20428;-61
2021/03/15 08:05:55;;;;;;;1.60;1.50;;;;;;;3.50;100.00;95733.13;5055452;28;20425;-62
2021/03/15 08:08:20;;;;;;;1.70;1.40;;;;;;;3.72;100.00;95734.53;5072420;28;20444;-61
2021/03/15 08:10:46;;;;;;;1.23;1.13;;;;;;;3.60;100.00;95736.13;5060331;28;20909;-61
2021/03/15 08:13:14;;;;;;;1.70;1.60;;;;;;;3.47;100.00;95743.91;5054412;28;20180;-63
2021/03/15 08:15:42;;;;;;;2.67;2.10;;;;;;;3.42;100.00;95741.09;5054339;28;20557;-61
2021/03/15 08:18:11;;;;;;;1.73;1.63;;;;;;;3.67;100.00;95739.53;5069439;28;20461;-59
2021/03/15 08:20:45;;;;;;;1.90;1.50;;;;;;;3.59;100.00;95744.09;5071691;28;20910;-60
2021/03/15 08:23:13;;;;;;;1.90;1.80;;;;;;;3.79;100.00;95737.94;5065580;28;20485;-60
2021/03/15 08:25:43;;;;;;;1.90;1.80;;;;;;;3.71;100.00;95738.16;5053160;28;20807;-61
2021/03/15 08:28:10;;;;;;;2.23;1.43;;;;;;;3.79;100.00;95739.72;5056763;28;20460;-60
2021/03/15 08:30:37;;;;;;;1.53;1.27;;;;;;;3.75;100.00;95744.53;5075261;28;20414;-63
2021/03/15 08:33:04;;;;;;;1.93;1.83;;;;;;;3.89;100.00;95753.16;5077079;28;20404;-62
2021/03/15 08:35:29;;;;;;;1.73;1.63;;;;;;;4.05;100.00;95750.16;5077234;28;20881;-63
2021/03/15 08:38:05;;;;;;;3.67;2.73;;;;;;;4.10;100.00;95756.34;5074837;28;20539;-63
2021/03/15 08:40:43;;;;;;;5.37;2.07;;;;;;;4.36;100.00;95752.94;5074481;28;20456;-62
2021/03/15 08:43:31;;;;;;;5.03;1.90;;;;;;;4.29;100.00;95751.34;5057635;28;20417;-59
2021/03/15 08:46:01;;;;;;;5.83;1.57;;;;;;;4.11;100.00;95760.53;5041467;28;20493;-63
2021/03/15 08:48:33;;;;;;;2.33;1.77;;;;;;;4.34;100.00;95754.94;5056730;28;20485;-58
2021/03/15 08:51:00;;;;;;;1.90;1.27;;;;;;;4.17;100.00;95762.34;5056929;28;20496;-59
2021/03/15 08:53:37;;;;;;;2.53;2.10;;;;;;;4.34;100.00;95756.72;5056845;28;20406;-58
2021/03/15 08:56:03;;;;;;;2.10;1.07;;;;;;;4.21;100.00;95754.94;5056318;28;20445;-59
2021/03/15 08:58:34;;;;;;;2.87;1.40;;;;;;;4.38;100.00;95768.31;5072431;28;20506;-65
2021/03/15 09:01:00;;;;;;;1.07;1.07;;;;;;;4.51;100.00;95769.09;5068621;28;20532;-65
2021/03/15 09:03:45;;;;;;;0.93;0.93;;;;;;;4.33;100.00;95771.50;5056605;28;20937;-65
2021/03/15 09:06:11;;;;;;;1.20;1.10;;;;;;;4.58;100.00;95767.31;5056095;28;21227;-65
2021/03/15 09:08:56;;;;;;;0.90;0.90;;;;;;;4.53;100.00;95766.31;5056469;28;20420;-66
2021/03/15 09:11:34;;;;;;;1.03;0.63;;;;;;;4.49;100.00;95776.31;5068903;28;20690;-61
2021/03/15 09:14:26;;;;;;;1.37;0.67;;;;;;;4.54;100.00;95775.69;5067747;28;20418;-59
2021/03/15 09:16:54;;;;;;;1.13;1.00;;;;;;;4.71;100.00;95780.25;5054139;28;20509;-62
2021/03/15 09:19:25;;;;;;;1.00;1.00;;;;;;;4.68;100.00;95778.09;5052665;28;20448;-60
2021/03/15 09:21:52;;;;;;;2.03;0.77;;;;;;;4.72;100.00;95783.69;5052502;28;20429;-61
2021/03/15 09:24:46;;;;;;;0.70;0.70;;;;;;;4.68;100.00;95783.28;5063667;28;20567;-61
2021/03/15 09:27:36;;;;;;;1.83;0.80;;;;;;;4.77;100.00;95784.66;5055092;28;20504;-60
2021/03/15 09:30:08;;;;;;;0.77;0.63;;;;;;;4.75;100.00;95783.25;5060820;28;20447;-62
2021/03/15 09:32:36;;;;;;;0.67;0.67;;;;;;;4.56;100.00;95781.50;5052438;28;20408;-61
2021/03/15 09:35:33;;;;;;;1.10;1.10;;;;;;;4.96;100.00;95785.63;5051690;28;20794;-60
2021/03/15 09:38:09;;;;;;;0.73;0.73;;;;;;;5.09;100.00;95783.75;5030087;28;20903;-60
2021/03/15 09:40:40;;;;;;;0.70;0.70;;;;;;;5.15;100.00;95785.56;5041917;28;20423;-60
2021/03/15 09:43:07;;;;;;;1.03;0.93;;;;;;;4.96;100.00;95783.03;5055864;28;20408;-60
2021/03/15 09:45:35;;;;;;;1.20;1.10;;;;;;;5.20;100.00;95787.53;5071352;28;20422;-61
2021/03/15 09:48:03;;;;;;;1.30;1.17;;;;;;;5.06;100.00;95783.38;5075277;28;20428;-60
2021/03/15 09:50:33;;;;;;;2.00;1.40;;;;;;;5.12;100.00;95783.38;5075809;28;20412;-60
2021/03/15 09:53:06;;;;;;;3.07;1.90;;;;;;;5.12;100.00;95783.38;5075778;28;20405;-60
2021/03/15 09:55:32;;;;;;;2.20;1.57;;;;;;;5.18;100.00;95789.56;5075549;28;20408;-60
2021/03/15 09:58:09;;;;;;;2.23;1.80;;;;;;;5.21;100.00;95784.75;5075053;28;20784;-60
2021/03/15 10:00:35;;;;;;;3.03;2.10;;;;;;;5.39;100.00;95793.66;5064919;28;20276;-60
2021/03/15 10:03:02;;;;;;;2.20;2.00;;;;;;;5.27;100.00;95796.13;5055029;28;20503;-60
2021/03/15 10:05:27;;;;;;;2.40;1.90;;;;;;;5.47;100.00;95786.41;5055611;28;20895;-60
2021/03/15 10:07:53;;;;;;;2.00;1.90;;;;;;;5.67;100.00;95784.50;5055034;28;20441;-60
2021/03/15 10:10:22;;;;;;;2.60;1.53;;;;;;;5.42;100.00;95804.47;5055322;28;20637;-60
2021/03/15 10:12:49;;;;;;;2.20;1.70;;;;;;;5.47;100.00;95796.81;5055124;28;20227;-60
2021/03/15 10:15:17;;;;;;;2.00;1.90;;;;;;;5.85;100.00;95792.44;5053921;28;20433;-60
2021/03/15 10:17:43;;;;;;;2.43;2.23;;;;;;;5.65;100.00;95794.31;5054240;28;20457;-61
2021/03/15 10:20:10;;;;;;;2.60;1.80;;;;;;;5.44;100.00;95802.47;5055080;28;20920;-60
2021/03/15 10:22:36;;;;;;;2.30;2.10;;;;;;;5.44;100.00;95804.25;5055615;28;20918;-61
2021/03/15 10:25:03;;;;;;;1.87;1.77;;;;;;;5.64;100.00;95805.78;5048897;28;20517;-60
2021/03/15 10:27:30;;;;;;;5.10;2.60;;;;;;;5.72;100.00;95804.72;5037069;28;20163;-60
2021/03/15 10:29:58;;;;;;;2.50;2.20;;;;;;;5.59;100.00;95803.00;5062272;28;20480;-60
2021/03/15 10:32:26;;;;;;;3.33;2.00;;;;;;;5.43;100.00;95815.69;5054869;28;20407;-61
2021/03/15 10:34:54;;;;;;;2.10;1.90;;;;;;;5.39;100.00;95819.72;5054849;28;20421;-60
2021/03/15 10:37:21;;;;;;;1.97;1.87;;;;;;;5.39;100.00;95822.31;5054915;28;20966;-60
2021/03/15 10:39:48;;;;;;;1.73;1.63;;;;;;;5.49;100.00;95818.25;5054328;28;20420;-60
2021/03/15 10:42:16;;;;;;;2.60;1.97;;;;;;;5.49;100.00;95814.88;5054265;28;20452;-62
2021/03/15 10:44:42;;;;;;;1.93;1.83;;;;;;;5.57;100.00;95818.03;5054629;28;20394;-69
2021/03/15 10:47:08;;;;;;;2.17;2.07;;;;;;;5.40;100.00;95816.88;5054082;28;20452;-69
2021/03/15 10:49:34;;;;;;;2.27;2.00;;;;;;;5.44;100.00;95823.28;5053741;28;20199;-65
2021/03/15 10:51:59;;;;;;;2.43;2.33;;;;;;;5.40;100.00;95835.13;5056708;28;20428;-65
2021/03/15 10:54:30;;;;;;;1.93;1.83;;;;;;;5.48;100.00;95821.88;5054030;28;20190;-68
2021/03/15 10:57:09;;;;;;;2.30;2.10;;;;;;;5.50;100.00;95824.28;5039557;28;20212;-68
2021/03/15 10:59:35;;;;;;;1.67;1.57;;;;;;;5.81;100.00;95830.34;5070724;28;20810;-67
2021/03/15 11:02:00;;;;;;;2.17;1.90;;;;;;;5.99;100.00;95827.06;5054357;28;20433;-66
2021/03/15 11:04:37;;;;;;;1.93;1.83;;;;;;;6.00;100.00;95823.44;5034578;28;20814;-68
2021/03/15 11:07:27;;;;;;;2.10;1.83;;;;;;;6.27;100.00;95834.50;5050530;28;20553;-68
2021/03/15 11:10:01;;;;;;;2.83;1.90;;;;;;;6.34;100.00;95833.41;5050027;28;20402;-68
2021/03/15 11:12:52;;;;;;;1.93;1.83;;;;;;;6.16;100.00;95841.16;5050549;28;20396;-67
2021/03/15 11:15:37;;;;;;;2.67;2.00;;;;;;;5.97;100.00;95842.09;5050301;28;20394;-62
2021/03/15 11:18:07;;;;;;;1.83;1.73;;;;;;;6.28;100.00;95836.09;5064952;28;20543;-62
2021/03/15 11:20:40;;;;;;;2.10;2.00;;;;;;;6.44;100.00;95843.38;5069900;28;20442;-62
2021/03/15 11:23:06;;;;;;;4.00;1.93;;;;;;;6.35;99.86;95853.28;5070173;28;20416;-63
2021/03/15 11:25:33;;;;;;;1.73;1.63;;;;;;;6.35;100.00;95857.69;5070225;28;20487;-64
2021/03/15 11:28:14;;;;;;;2.27;2.07;;;;;;;6.28;100.00;95847.31;5069966;28;20417;-64
2021/03/15 11:30:41;;;;;;;2.50;2.30;;;;;;;6.03;100.00;95852.47;5061122;28;20436;-63
2021/03/15 11:33:22;;;;;;;1.93;1.83;;;;;;;6.20;100.00;95850.97;5049353;28;21175;-63
2021/03/15 11:35:47;;;;;;;2.73;2.47;;;;;;;6.70;100.00;95849.22;5049933;28;20404;-62
2021/03/15 11:38:13;;;;;;;2.77;2.57;;;;;;;6.76;100.00;95850.94;5049362;28;20481;-63
2021/03/15 11:40:42;;;;;;;2.40;2.30;;;;;;;6.64;100.00;95854.47;5050175;28;20240;-63
2021/03/15 11:43:11;;;;;;;2.97;2.30;;;;;;;6.62;100.00;95859.09;5049993;28;20417;-63
2021/03/15 11:45:38;;;;;;;3.00;2.70;;;;;;;6.80;100.00;95859.94;5049256;28;20797;-64
2021/03/15 11:48:04;;;;;;;3.27;2.97;;;;;;;7.08;98.67;95859.50;5041868;28;20528;-63
2021/03/15 11:50:31;;;;;;;5.40;3.20;;;;;;;7.12;96.46;95855.44;5062120;28;20414;-63